Time;durP1;ratioP1;P1;durP2;ratioP2;P2;SDS_P1;SDS_P2;PMS_P1;PMS_P2;Temp;Humidity;BMP_temperature;BMP_pressure;BME280_temperature;BME280_humidity;BME280_pressure;Samples;Min_cycle;Max_cycle;Signal;HPM_P1;HPM_P2
2020/12/11 00:02:22;;;;;;;23.93;13.17;;;;;;;3.14;85.68;99773.66;5017509;28;20285;-67
2020/12/11 00:04:48;;;;;;;20.07;11.97;;;;;;;3.13;85.71;99776.34;5011489;28;20234;-67
2020/12/11 00:07:15;;;;;;;23.73;13.77;;;;;;;3.14;85.21;99767.53;5005947;28;20199;-67
2020/12/11 00:09:41;;;;;;;22.27;13.10;;;;;;;3.13;85.41;99764.06;5005475;28;20214;-66
2020/12/11 00:12:07;;;;;;;24.30;13.37;;;;;;;3.13;84.84;99758.78;5018763;28;20211;-67
2020/12/11 00:14:33;;;;;;;23.07;13.47;;;;;;;3.13;85.22;99750.91;5018779;28;20209;-67
2020/12/11 00:16:59;;;;;;;22.73;12.63;;;;;;;3.15;84.88;99748.19;5020276;28;20299;-67
2020/12/11 00:19:25;;;;;;;23.67;13.70;;;;;;;3.14;85.25;99747.34;5013027;28;20229;-67
2020/12/11 00:21:52;;;;;;;23.67;13.47;;;;;;;3.16;84.61;99743.78;5013901;28;20305;-68
2020/12/11 00:24:19;;;;;;;26.10;14.03;;;;;;;3.14;84.91;99747.34;5015498;28;20242;-67
2020/12/11 00:26:46;;;;;;;24.17;13.33;;;;;;;3.14;84.62;99749.13;5024997;28;20601;-67
2020/12/11 00:29:12;;;;;;;26.07;14.00;;;;;;;3.15;84.58;99750.84;5016161;28;20346;-67
2020/12/11 00:31:38;;;;;;;26.63;13.50;;;;;;;3.13;84.60;99740.38;5024103;28;20318;-67
2020/12/11 00:34:04;;;;;;;23.20;12.93;;;;;;;3.14;84.99;99736.81;5029515;28;20693;-67
2020/12/11 00:36:31;;;;;;;26.53;13.90;;;;;;;3.15;84.82;99737.69;5017106;28;20319;-67
2020/12/11 00:38:57;;;;;;;24.83;14.00;;;;;;;3.14;84.24;99731.56;5017245;28;20211;-67
2020/12/11 00:41:23;;;;;;;25.60;13.63;;;;;;;3.13;84.71;99723.75;5012758;28;20230;-67
2020/12/11 00:43:49;;;;;;;27.03;14.10;;;;;;;3.13;84.38;99731.63;5013087;28;20834;-67
2020/12/11 00:46:23;;;;;;;32.17;14.73;;;;;;;3.11;84.06;99717.69;5029213;28;20678;-67
2020/12/11 00:48:49;;;;;;;30.63;15.10;;;;;;;3.11;84.31;99720.31;5023004;28;20211;-67
2020/12/11 00:51:18;;;;;;;29.87;14.23;;;;;;;3.10;84.48;99711.56;5021649;28;20226;-67
2020/12/11 00:53:44;;;;;;;30.30;14.33;;;;;;;3.09;84.19;99709.03;5015663;28;20210;-67
2020/12/11 00:56:10;;;;;;;35.07;16.27;;;;;;;3.06;84.14;99712.63;5023358;28;20206;-67
2020/12/11 00:58:37;;;;;;;32.53;15.23;;;;;;;3.07;84.52;99713.50;5026369;28;20212;-67
2020/12/11 01:01:03;;;;;;;37.43;16.17;;;;;;;3.07;84.15;99718.75;5020569;28;20588;-67
2020/12/11 01:03:29;;;;;;;29.50;14.03;;;;;;;3.08;84.20;99716.06;5023188;28;20581;-67
2020/12/11 01:05:55;;;;;;;36.67;15.57;;;;;;;3.08;84.03;99712.56;5021011;28;20206;-67
2020/12/11 01:08:21;;;;;;;30.40;15.93;;;;;;;3.10;83.99;99702.84;5020990;28;20574;-67
2020/12/11 01:10:47;;;;;;;33.03;14.87;;;;;;;3.10;84.17;99708.09;5012104;28;20242;-67
2020/12/11 01:13:13;;;;;;;35.87;17.10;;;;;;;3.11;83.73;99700.13;5013465;28;20211;-67
2020/12/11 01:15:40;;;;;;;35.93;15.57;;;;;;;3.11;84.39;99699.28;5007692;28;20206;-67
2020/12/11 01:18:06;;;;;;;37.53;16.77;;;;;;;3.11;83.53;99697.50;5020428;28;20202;-67
2020/12/11 01:20:32;;;;;;;37.37;16.53;;;;;;;3.10;84.24;99681.78;5019941;28;20223;-67
2020/12/11 01:22:58;;;;;;;35.93;16.40;;;;;;;3.09;83.65;99687.97;5018796;28;20210;-67
2020/12/11 01:25:24;;;;;;;34.47;15.47;;;;;;;3.10;83.93;99681.78;5013252;28;20209;-67
2020/12/11 01:27:50;;;;;;;38.50;15.23;;;;;;;3.09;83.85;99678.31;5012019;28;20207;-67
2020/12/11 01:30:16;;;;;;;40.17;16.70;;;;;;;3.10;83.26;99677.38;5010548;28;20223;-67
2020/12/11 01:32:43;;;;;;;39.73;17.40;;;;;;;3.09;83.68;99665.16;5015172;28;20843;-67
2020/12/11 01:35:09;;;;;;;36.63;17.33;;;;;;;3.09;83.87;99661.66;5012527;28;20226;-66
2020/12/11 01:37:35;;;;;;;44.80;18.13;;;;;;;3.07;83.70;99656.47;5021070;28;20199;-67
2020/12/11 01:40:01;;;;;;;40.80;16.47;;;;;;;3.07;83.24;99650.38;5022461;28;21444;-67
2020/12/11 01:42:27;;;;;;;42.03;17.40;;;;;;;3.08;83.84;99649.44;5000736;28;20207;-67
2020/12/11 01:44:54;;;;;;;44.40;16.90;;;;;;;3.04;83.55;99659.28;5014450;28;20207;-67
2020/12/11 01:47:22;;;;;;;38.83;17.70;;;;;;;3.02;83.34;99637.47;5013271;28;20207;-67
2020/12/11 01:49:50;;;;;;;43.00;17.80;;;;;;;3.01;83.91;99634.91;5013857;28;20621;-67
2020/12/11 01:52:18;;;;;;;46.43;17.90;;;;;;;3.00;83.63;99631.41;5023255;28;20298;-67
2020/12/11 01:54:45;;;;;;;45.53;17.10;;;;;;;2.98;83.56;99627.16;5011640;28;20276;-67
2020/12/11 01:57:17;;;;;;;40.07;17.60;;;;;;;2.96;83.32;99626.38;5011065;28;20577;-67
2020/12/11 01:59:43;;;;;;;38.07;18.03;;;;;;;2.94;83.39;99626.44;5011333;28;20203;-67
2020/12/11 02:02:11;;;;;;;36.80;15.90;;;;;;;2.94;83.70;99626.44;5011620;28;20582;-67
2020/12/11 02:04:38;;;;;;;40.33;17.00;;;;;;;2.93;83.64;99624.75;5012237;28;20302;-66
2020/12/11 02:07:05;;;;;;;43.07;16.57;;;;;;;2.90;83.26;99624.88;5011993;28;20210;-66
2020/12/11 02:09:32;;;;;;;47.37;18.30;;;;;;;2.90;83.36;99632.78;5012291;28;20203;-67
2020/12/11 02:11:59;;;;;;;44.43;17.10;;;;;;;2.89;83.29;99617.06;5011399;28;20227;-67
2020/12/11 02:14:25;;;;;;;42.40;17.27;;;;;;;2.89;83.36;99611.81;5010691;28;20264;-67
2020/12/11 02:16:56;;;;;;;48.63;18.10;;;;;;;2.88;83.33;99607.47;5011764;28;20211;-67
2020/12/11 02:19:22;;;;;;;45.67;18.13;;;;;;;2.86;83.75;99606.72;5011406;28;20298;-66
2020/12/11 02:21:48;;;;;;;43.00;18.27;;;;;;;2.86;83.39;99604.09;5012033;28;20237;-67
2020/12/11 02:24:16;;;;;;;42.80;18.07;;;;;;;2.86;82.70;99601.47;5011217;28;20203;-67
2020/12/11 02:26:43;;;;;;;39.80;17.63;;;;;;;2.86;83.04;99601.47;5011663;28;20330;-67
2020/12/11 02:29:09;;;;;;;42.67;16.23;;;;;;;2.85;83.10;99607.66;5010898;28;20211;-67
2020/12/11 02:31:35;;;;;;;42.50;17.00;;;;;;;2.85;83.45;99597.13;5010876;28;20227;-67
2020/12/11 02:34:01;;;;;;;35.43;16.90;;;;;;;2.85;83.51;99592.72;5018551;28;20221;-67
2020/12/11 02:36:27;;;;;;;38.70;16.73;;;;;;;2.84;82.51;99590.16;5029097;28;20220;-67
2020/12/11 02:38:54;;;;;;;35.80;15.77;;;;;;;2.82;82.93;99584.97;5013173;28;20592;-67
2020/12/11 02:41:20;;;;;;;34.07;15.63;;;;;;;2.79;82.71;99583.34;5019550;28;20223;-67
2020/12/11 02:43:46;;;;;;;33.23;14.80;;;;;;;2.78;82.88;99586.03;5024569;28;20206;-66
2020/12/11 02:46:12;;;;;;;29.27;15.47;;;;;;;2.76;82.14;99580.00;5014507;28;20577;-67
2020/12/11 02:48:38;;;;;;;27.90;14.93;;;;;;;2.73;83.17;99575.75;5014636;28;20206;-67
2020/12/11 02:51:04;;;;;;;26.77;15.57;;;;;;;2.71;82.87;99574.97;5014133;28;20239;-66
2020/12/11 02:53:30;;;;;;;28.37;15.27;;;;;;;2.69;82.88;99576.81;5014486;28;20211;-67
2020/12/11 02:55:58;;;;;;;25.93;14.43;;;;;;;2.66;82.44;99569.09;5012694;28;20217;-66
2020/12/11 02:58:25;;;;;;;26.53;14.67;;;;;;;2.65;82.29;99561.28;5013989;28;20207;-67
2020/12/11 03:00:51;;;;;;;29.90;14.80;;;;;;;2.65;82.13;99563.91;5013090;28;20230;-67
2020/12/11 03:03:17;;;;;;;30.97;15.03;;;;;;;2.63;82.06;99558.72;5015662;28;20211;-67
2020/12/11 03:05:43;;;;;;;29.00;15.03;;;;;;;2.63;82.01;99557.88;5017262;28;20206;-67
2020/12/11 03:08:09;;;;;;;21.20;13.07;;;;;;;2.60;81.73;99545.72;5012619;28;20587;-67
2020/12/11 03:10:35;;;;;;;26.70;13.97;;;;;;;2.59;82.07;99544.00;5013611;28;20735;-67
2020/12/11 03:13:01;;;;;;;25.87;14.57;;;;;;;2.60;81.63;99547.50;5015693;28;20215;-66
2020/12/11 03:15:27;;;;;;;21.70;12.83;;;;;;;2.58;82.01;99541.47;5012593;28;20214;-66
2020/12/11 03:17:54;;;;;;;20.90;13.20;;;;;;;2.57;81.27;99539.75;5016210;28;20316;-67
2020/12/11 03:20:22;;;;;;;23.30;13.83;;;;;;;2.56;81.64;99538.91;5023433;28;20219;-67
2020/12/11 03:22:50;;;;;;;22.67;12.80;;;;;;;2.55;81.59;99531.94;5009819;28;20620;-67
2020/12/11 03:25:17;;;;;;;23.43;13.00;;;;;;;2.55;81.57;99531.09;5011491;28;20203;-66
2020/12/11 03:27:43;;;;;;;23.43;14.07;;;;;;;2.55;81.46;99526.69;5025656;28;20206;-66
2020/12/11 03:30:10;;;;;;;26.80;14.00;;;;;;;2.54;80.73;99524.97;5030605;28;20230;-67
2020/12/11 03:32:37;;;;;;;23.47;13.53;;;;;;;2.54;81.62;99524.97;5016035;28;20199;-68
2020/12/11 03:35:04;;;;;;;22.80;13.50;;;;;;;2.54;80.68;99517.09;4997281;28;20211;-67
2020/12/11 03:37:30;;;;;;;23.00;13.40;;;;;;;2.54;81.36;99521.50;5010933;28;20215;-66
2020/12/11 03:39:56;;;;;;;23.83;13.53;;;;;;;2.54;80.76;99518.88;5009100;28;20763;-68
2020/12/11 03:42:22;;;;;;;21.10;13.17;;;;;;;2.54;80.97;99527.59;5010917;28;20200;-67
2020/12/11 03:44:48;;;;;;;23.27;13.30;;;;;;;2.54;80.97;99532.88;5012486;28;20221;-67
2020/12/11 03:47:15;;;;;;;25.87;14.40;;;;;;;2.54;80.85;99526.75;5010764;28;20202;-67
2020/12/11 03:49:44;;;;;;;21.83;13.60;;;;;;;2.54;80.67;99524.97;5012491;28;20211;-67
2020/12/11 03:52:10;;;;;;;20.20;13.37;;;;;;;2.54;80.23;99518.88;5009424;28;20242;-67
2020/12/11 03:54:36;;;;;;;22.40;13.30;;;;;;;2.54;80.24;99517.09;5009279;28;20207;-67
2020/12/11 03:57:02;;;;;;;21.13;14.00;;;;;;;2.54;80.85;99503.94;5009283;28;20203;-67
2020/12/11 03:59:38;;;;;;;;;;;;;;;;;;;;;
2020/12/11 04:02:05;;;;;;;17.93;12.43;;;;;;;2.55;80.61;99494.28;5014481;28;20228;-67
2020/12/11 04:04:31;;;;;;;20.10;12.50;;;;;;;2.55;80.33;99494.28;5020187;28;20217;-67
2020/12/11 04:06:57;;;;;;;21.87;13.43;;;;;;;2.54;80.73;99492.59;5024212;28;20210;-67
2020/12/11 04:09:23;;;;;;;21.50;13.17;;;;;;;2.53;80.31;99491.75;5017404;28;20217;-66
2020/12/11 04:11:50;;;;;;;18.17;12.63;;;;;;;2.53;79.83;99486.47;5021362;28;20223;-67
2020/12/11 04:14:16;;;;;;;16.90;11.43;;;;;;;2.53;80.76;99486.47;5023978;28;20653;-67
2020/12/11 04:16:42;;;;;;;18.70;11.83;;;;;;;2.50;80.58;99484.03;5021210;28;20210;-67
2020/12/11 04:19:08;;;;;;;16.00;10.73;;;;;;;2.50;80.28;99481.41;5022239;28;20717;-67
2020/12/11 04:21:35;;;;;;;18.03;12.50;;;;;;;2.48;79.59;99477.13;5016402;28;20606;-67
2020/12/11 04:24:00;;;;;;;15.60;11.27;;;;;;;2.46;80.26;99485.09;5013856;28;20198;-67
2020/12/11 04:26:27;;;;;;;13.47;10.00;;;;;;;2.45;80.00;99472.88;5025900;28;20324;-67
2020/12/11 04:28:53;;;;;;;15.07;10.30;;;;;;;2.42;79.79;99473.88;5022416;28;20225;-66
2020/12/11 04:31:20;;;;;;;14.73;10.43;;;;;;;2.42;79.45;99475.66;5017559;28;20684;-67
2020/12/11 04:33:46;;;;;;;13.97;10.97;;;;;;;2.38;79.39;99467.06;5011226;28;20207;-67
2020/12/11 04:36:16;;;;;;;14.10;10.37;;;;;;;2.36;78.84;99468.06;5009887;28;20213;-67
2020/12/11 04:38:45;;;;;;;15.03;10.90;;;;;;;2.35;79.46;99461.94;5011266;28;20211;-67
2020/12/11 04:41:13;;;;;;;16.93;11.23;;;;;;;2.31;78.78;99464.81;5010074;28;20241;-67
2020/12/11 04:43:40;;;;;;;16.10;10.93;;;;;;;2.30;79.42;99465.75;5009902;28;20592;-67
2020/12/11 04:46:07;;;;;;;14.50;10.03;;;;;;;2.27;79.37;99450.97;5014411;28;20211;-66
2020/12/11 04:48:33;;;;;;;14.07;10.53;;;;;;;2.25;79.19;99455.47;5013648;28;20210;-66
2020/12/11 04:51:01;;;;;;;16.20;10.57;;;;;;;2.25;78.21;99451.97;5014464;28;20241;-66
2020/12/11 04:53:32;;;;;;;18.03;11.70;;;;;;;2.23;78.38;99451.19;5012362;28;20209;-66
2020/12/11 04:56:01;;;;;;;14.77;11.13;;;;;;;2.22;79.01;99452.13;5013082;28;20214;-66
2020/12/11 04:58:30;;;;;;;14.13;10.47;;;;;;;2.20;78.51;99448.72;5013160;28;20221;-67
2020/12/11 05:01:01;;;;;;;15.50;11.20;;;;;;;2.19;78.52;99452.25;5014905;28;20745;-66
2020/12/11 05:03:30;;;;;;;15.37;10.80;;;;;;;2.17;78.33;99454.09;5001933;28;20889;-66
2020/12/11 05:05:56;;;;;;;15.90;11.20;;;;;;;2.14;78.18;99447.25;5009777;28;20758;-67
2020/12/11 05:08:22;;;;;;;14.73;10.70;;;;;;;2.13;77.93;99442.06;5017501;28;20585;-67
2020/12/11 05:10:48;;;;;;;15.27;11.00;;;;;;;2.11;78.43;99446.53;5018595;28;20236;-67
2020/12/11 05:13:20;;;;;;;14.43;10.33;;;;;;;2.09;77.99;99430.84;5017760;28;20207;-67
2020/12/11 05:16:07;;;;;;;14.40;10.23;;;;;;;2.07;77.50;99441.44;5012011;28;20660;-67
2020/12/11 05:18:33;;;;;;;15.23;10.40;;;;;;;2.06;78.33;99444.13;5023839;28;20221;-67
2020/12/11 05:21:14;;;;;;;15.97;11.00;;;;;;;2.02;77.49;99438.16;5023765;28;20610;-66
2020/12/11 05:23:57;;;;;;;13.63;9.97;;;;;;;2.02;77.85;99435.53;5017937;28;20253;-66
2020/12/11 05:26:24;;;;;;;14.60;10.63;;;;;;;2.01;77.55;99432.97;5023501;28;20558;-67
2020/12/11 05:28:51;;;;;;;16.47;10.60;;;;;;;2.00;77.33;99436.53;5017574;28;20211;-66
2020/12/11 05:31:17;;;;;;;14.93;10.20;;;;;;;1.99;78.27;99443.56;5008829;28;20245;-67
2020/12/11 05:34:07;;;;;;;13.37;9.87;;;;;;;2.00;78.13;99444.41;5008716;28;20205;-67
2020/12/11 05:36:51;;;;;;;17.77;11.07;;;;;;;1.99;77.93;99446.19;5006906;28;20211;-67
2020/12/11 05:39:30;;;;;;;16.30;11.33;;;;;;;1.99;77.78;99445.34;4996234;28;20211;-66
2020/12/11 05:41:57;;;;;;;15.60;10.73;;;;;;;1.98;77.37;99447.09;4999131;28;20237;-67
2020/12/11 05:44:29;;;;;;;14.47;11.00;;;;;;;1.99;77.29;99445.34;5012067;28;20600;-67
2020/12/11 05:46:56;;;;;;;14.90;10.43;;;;;;;1.99;77.33;99442.72;5002433;28;20214;-67
2020/12/11 05:49:24;;;;;;;14.43;10.10;;;;;;;2.00;77.52;99442.63;5004713;28;20211;-67
2020/12/11 05:51:55;;;;;;;16.43;11.20;;;;;;;2.02;77.77;99448.66;5011938;28;20321;-67
2020/12/11 05:54:23;;;;;;;16.00;10.67;;;;;;;2.01;77.65;99446.13;5003137;28;20212;-66
2020/12/11 05:56:51;;;;;;;16.70;11.27;;;;;;;2.01;77.88;99449.59;5007926;28;20276;-66
2020/12/11 05:59:25;;;;;;;13.93;10.13;;;;;;;2.04;77.16;99444.19;5023552;28;20205;-66
2020/12/11 06:01:56;;;;;;;16.17;11.63;;;;;;;2.05;77.91;99451.16;5020918;28;20225;-67
2020/12/11 06:04:25;;;;;;;16.77;10.70;;;;;;;2.08;78.02;99455.41;5019991;28;20207;-66
2020/12/11 06:06:56;;;;;;;17.90;11.97;;;;;;;2.08;77.65;99448.38;5016280;28;20217;-66
2020/12/11 06:09:28;;;;;;;16.23;10.50;;;;;;;2.10;77.35;99445.69;5024322;28;20287;-67
2020/12/11 06:11:59;;;;;;;15.90;9.20;;;;;;;2.12;77.47;99453.50;5002887;28;20691;-66
2020/12/11 06:14:36;;;;;;;11.20;8.77;;;;;;;2.12;77.80;99448.25;5005075;28;20300;-67
2020/12/11 06:17:06;;;;;;;11.70;9.13;;;;;;;2.13;77.49;99452.56;5005899;28;20203;-67
2020/12/11 06:19:33;;;;;;;12.93;9.37;;;;;;;2.14;76.84;99441.16;5011781;28;20207;-67
2020/12/11 06:22:00;;;;;;;14.47;10.33;;;;;;;2.15;77.56;99445.47;5012649;28;20223;-67
2020/12/11 06:24:28;;;;;;;18.03;11.37;;;;;;;2.17;76.88;99439.19;5006156;28;20206;-66
2020/12/11 06:26:57;;;;;;;18.17;11.10;;;;;;;2.19;77.63;99444.38;5021396;28;20207;-67
2020/12/11 06:29:28;;;;;;;15.17;10.60;;;;;;;2.21;77.10;99439.91;5009703;28;20694;-66
2020/12/11 06:31:54;;;;;;;15.40;11.47;;;;;;;2.22;77.06;99431.09;5006766;28;20238;-67
2020/12/11 06:34:22;;;;;;;13.20;9.57;;;;;;;2.22;77.04;99433.72;5000030;28;20208;-67
2020/12/11 06:36:49;;;;;;;12.63;9.17;;;;;;;2.22;77.45;99436.34;5013299;28;20213;-67
2020/12/11 06:39:40;;;;;;;15.53;10.10;;;;;;;2.23;76.88;99424.94;5013094;28;20203;-66
2020/12/11 06:42:07;;;;;;;13.43;9.77;;;;;;;2.24;76.85;99421.38;5009553;28;20668;-66
2020/12/11 06:44:33;;;;;;;12.97;9.57;;;;;;;2.25;77.19;99415.19;5012489;28;20211;-67
2020/12/11 06:47:10;;;;;;;16.60;11.10;;;;;;;2.27;76.38;99415.97;5025543;28;20576;-66
2020/12/11 06:49:57;;;;;;;14.00;10.73;;;;;;;2.27;76.74;99400.22;5016612;28;20205;-66
2020/12/11 06:52:33;;;;;;;15.03;10.20;;;;;;;2.27;76.21;99402.84;5006703;28;20236;-67
2020/12/11 06:54:59;;;;;;;12.50;9.97;;;;;;;2.27;76.71;99395.81;5000960;28;20213;-67
2020/12/11 06:57:36;;;;;;;14.90;9.77;;;;;;;2.27;76.76;99382.69;5003803;28;20199;-67
2020/12/11 07:00:30;;;;;;;13.93;10.17;;;;;;;2.29;76.74;99387.88;5010445;28;20268;-66
2020/12/11 07:03:20;;;;;;;14.17;10.07;;;;;;;2.29;76.12;99385.22;5004214;28;20202;-67
2020/12/11 07:05:56;;;;;;;12.97;9.37;;;;;;;2.30;75.98;99385.16;5003890;28;20207;-67
2020/12/11 07:08:23;;;;;;;14.13;10.67;;;;;;;2.30;76.07;99376.44;5004185;28;20203;-67
2020/12/11 07:10:49;;;;;;;17.27;10.63;;;;;;;2.32;76.45;99377.22;5005316;28;20226;-69
2020/12/11 07:13:16;;;;;;;20.30;12.77;;;;;;;2.33;76.14;99378.91;5005495;28;20579;-69
2020/12/11 07:15:42;;;;;;;15.50;11.30;;;;;;;2.34;75.85;99373.53;5002619;28;20271;-69
2020/12/11 07:18:13;;;;;;;15.60;10.30;;;;;;;2.37;76.14;99359.41;4999738;28;20213;-70
2020/12/11 07:20:47;;;;;;;14.03;10.20;;;;;;;2.38;75.75;99361.13;4998452;28;20241;-68
2020/12/11 07:23:14;;;;;;;15.83;10.87;;;;;;;2.39;75.59;99354.94;5005114;28;20209;-69
2020/12/11 07:25:41;;;;;;;20.70;12.47;;;;;;;2.41;75.82;99353.09;5003698;28;20207;-69
2020/12/11 07:28:07;;;;;;;19.07;11.70;;;;;;;2.41;76.25;99347.81;5002563;28;20694;-69
2020/12/11 07:30:33;;;;;;;17.40;11.53;;;;;;;2.41;75.93;99359.19;4998085;28;20223;-71
2020/12/11 07:33:01;;;;;;;13.67;9.97;;;;;;;2.42;75.67;99344.28;4999571;28;20203;-69
2020/12/11 07:35:27;;;;;;;15.67;11.60;;;;;;;2.42;76.33;99341.66;4999866;28;20215;-69
2020/12/11 07:37:54;;;;;;;15.67;10.73;;;;;;;2.43;76.22;99345.97;5002600;28;20210;-69
2020/12/11 07:40:22;;;;;;;15.77;11.43;;;;;;;2.42;75.53;99341.66;5004079;28;20246;-68
2020/12/11 07:42:50;;;;;;;16.50;11.40;;;;;;;2.43;75.69;99340.72;5000230;28;20230;-68
2020/12/11 07:45:23;;;;;;;14.83;10.70;;;;;;;2.46;75.62;99344.97;4997010;28;20274;-68
2020/12/11 07:47:51;;;;;;;16.83;11.23;;;;;;;2.45;76.12;99336.25;4999618;28;20208;-69
2020/12/11 07:50:20;;;;;;;12.73;10.00;;;;;;;2.46;75.52;99340.56;4999321;28;20237;-69
2020/12/11 07:52:47;;;;;;;14.37;9.73;;;;;;;2.47;75.73;99339.63;5003655;28;20232;-68
2020/12/11 07:55:13;;;;;;;12.83;9.63;;;;;;;2.47;75.59;99344.91;5006944;28;20198;-68
2020/12/11 07:57:39;;;;;;;13.90;9.40;;;;;;;2.48;75.92;99340.50;4994938;28;20207;-68
2020/12/11 08:00:08;;;;;;;12.43;9.70;;;;;;;2.48;75.34;99329.97;4999653;28;20238;-68
2020/12/11 08:02:35;;;;;;;14.83;10.33;;;;;;;2.49;75.26;99323.81;5000857;28;20215;-69
2020/12/11 08:05:05;;;;;;;16.70;11.07;;;;;;;2.50;74.96;99323.72;5003631;28;20291;-68
2020/12/11 08:07:32;;;;;;;15.40;10.70;;;;;;;2.51;75.44;99319.31;5011120;28;20205;-68
2020/12/11 08:10:07;;;;;;;14.53;9.90;;;;;;;2.52;74.98;99324.47;5011238;28;20219;-69
2020/12/11 08:12:33;;;;;;;16.97;11.47;;;;;;;2.54;75.36;99313.88;5011413;28;20269;-68
2020/12/11 08:14:59;;;;;;;21.00;10.50;;;;;;;2.54;75.36;99309.47;5011634;28;20257;-68
2020/12/11 08:17:29;;;;;;;16.00;11.17;;;;;;;2.56;75.28;99304.13;5006468;28;20204;-68
2020/12/11 08:19:59;;;;;;;14.77;10.73;;;;;;;2.57;75.62;99297.94;5014179;28;20316;-69
2020/12/11 08:22:32;;;;;;;16.27;11.17;;;;;;;2.56;75.88;99302.38;5016463;28;20225;-68
2020/12/11 08:24:59;;;;;;;17.17;10.53;;;;;;;2.59;75.54;99299.56;5019994;28;20289;-68
2020/12/11 08:27:27;;;;;;;16.67;10.87;;;;;;;2.58;75.26;99305.75;5015508;28;20195;-68
2020/12/11 08:30:05;;;;;;;17.07;11.07;;;;;;;2.61;75.70;99302.13;5016112;28;20301;-68
2020/12/11 08:32:32;;;;;;;18.90;12.77;;;;;;;2.63;75.38;99301.13;5012102;28;20223;-68
2020/12/11 08:34:58;;;;;;;14.70;11.03;;;;;;;2.65;75.48;99301.03;5014705;28;20706;-68
2020/12/11 08:37:24;;;;;;;18.03;11.50;;;;;;;2.65;75.87;99291.38;5015604;28;20213;-68
2020/12/11 08:39:50;;;;;;;17.57;12.70;;;;;;;2.67;75.32;99291.31;5011740;28;20214;-68
2020/12/11 08:42:23;;;;;;;16.37;9.87;;;;;;;2.69;75.51;99294.66;5006278;28;20206;-68
2020/12/11 08:45:10;;;;;;;15.33;10.13;;;;;;;2.69;75.62;99285.00;5015067;28;20207;-69
2020/12/11 08:48:00;;;;;;;15.90;11.00;;;;;;;2.70;74.83;99283.22;5015937;28;20226;-69
2020/12/11 08:50:33;;;;;;;14.40;10.23;;;;;;;2.71;75.01;99285.78;5002541;28;20230;-68
2020/12/11 08:53:03;;;;;;;15.30;10.53;;;;;;;2.73;74.98;99280.44;5015025;28;20715;-63
2020/12/11 08:55:29;;;;;;;14.83;10.43;;;;;;;2.76;75.56;99280.28;5011766;28;20207;-63
2020/12/11 08:57:55;;;;;;;14.03;10.10;;;;;;;2.77;75.02;99271.47;5025401;28;20585;-63
2020/12/11 09:00:21;;;;;;;15.40;10.37;;;;;;;2.80;74.95;99266.06;5015686;28;20309;-69
2020/12/11 09:02:48;;;;;;;14.80;10.63;;;;;;;2.81;74.82;99264.28;5015715;28;20211;-68
2020/12/11 09:05:14;;;;;;;17.27;10.90;;;;;;;2.84;75.28;99269.38;5015081;28;20687;-68
2020/12/11 09:07:40;;;;;;;15.70;10.63;;;;;;;2.83;75.15;99275.56;5015250;28;20205;-68
2020/12/11 09:10:06;;;;;;;19.67;10.63;;;;;;;2.83;74.60;99267.66;5015063;28;20226;-68
2020/12/11 09:12:35;;;;;;;16.10;10.30;;;;;;;2.84;74.92;99275.47;5013403;28;20219;-68
2020/12/11 09:15:01;;;;;;;17.67;11.57;;;;;;;2.85;74.49;99265.81;5015591;28;20709;-68
2020/12/11 09:17:27;;;;;;;17.17;11.27;;;;;;;2.86;74.72;99271.00;5017372;28;20579;-68
2020/12/11 09:19:54;;;;;;;16.53;11.80;;;;;;;2.89;74.70;99268.16;5016342;28;20297;-69
2020/12/11 09:22:20;;;;;;;19.53;12.07;;;;;;;2.89;74.48;99269.94;5003696;28;20214;-68
2020/12/11 09:24:46;;;;;;;17.80;12.07;;;;;;;2.91;74.16;99276.81;5013947;28;20249;-68
2020/12/11 09:27:13;;;;;;;18.80;11.20;;;;;;;2.93;74.99;99272.34;5007415;28;20218;-68
2020/12/11 09:29:42;;;;;;;20.80;12.03;;;;;;;2.95;74.83;99272.25;5014171;28;20646;-68
2020/12/11 09:32:11;;;;;;;16.47;11.73;;;;;;;2.97;74.97;99273.03;5013552;28;20281;-69
2020/12/11 09:34:37;;;;;;;16.77;11.67;;;;;;;2.99;74.83;99268.53;5013928;28;20217;-69
2020/12/11 09:37:04;;;;;;;14.40;10.63;;;;;;;2.99;74.85;99268.53;5014760;28;20207;-68
2020/12/11 09:39:31;;;;;;;15.73;10.17;;;;;;;3.01;74.81;99258.78;5014398;28;20211;-68
2020/12/11 09:42:03;;;;;;;20.53;11.93;;;;;;;3.02;74.08;99252.59;5013424;28;20723;-68
2020/12/11 09:47:42;;;;;;;16.50;10.23;;;;;;;3.06;74.06;99248.84;5014174;28;20218;-68
2020/12/11 09:50:26;;;;;;;16.00;10.73;;;;;;;3.08;73.85;99246.97;5011560;28;20309;-68
2020/12/11 09:53:01;;;;;;;19.67;11.70;;;;;;;3.10;74.14;99240.72;5006524;28;20313;-68
2020/12/11 09:55:36;;;;;;;16.37;10.87;;;;;;;3.12;74.23;99238.84;5011601;28;20337;-69
2020/12/11 09:58:02;;;;;;;19.30;11.73;;;;;;;3.15;74.50;99235.19;5013971;28;20253;-68
2020/12/11 10:00:28;;;;;;;22.67;12.37;;;;;;;3.16;73.71;99236.91;5013431;28;20229;-68
2020/12/11 10:02:58;;;;;;;18.37;11.10;;;;;;;3.19;74.25;99223.59;5013816;28;20247;-68
2020/12/11 10:05:24;;;;;;;20.27;11.50;;;;;;;3.21;73.83;99221.72;5013462;28;20211;-69
2020/12/11 10:07:50;;;;;;;18.30;11.20;;;;;;;3.23;73.78;99221.59;5013975;28;20203;-69
2020/12/11 10:10:17;;;;;;;19.97;11.93;;;;;;;3.26;74.35;99224.06;5012242;28;20229;-67
2020/12/11 10:12:43;;;;;;;20.97;12.57;;;;;;;3.27;74.37;99220.50;5009793;28;20638;-67
2020/12/11 10:15:20;;;;;;;18.33;11.63;;;;;;;3.28;74.19;99216.94;5014525;28;20207;-67
2020/12/11 10:17:47;;;;;;;19.33;11.33;;;;;;;3.29;74.31;99222.13;5020503;28;20221;-71
2020/12/11 10:20:18;;;;;;;15.93;10.53;;;;;;;3.31;74.42;99212.34;5014221;28;20261;-69
2020/12/11 10:22:44;;;;;;;19.23;11.87;;;;;;;3.33;73.46;99213.13;5013161;28;20222;-68
2020/12/11 10:25:10;;;;;;;20.13;11.07;;;;;;;3.34;73.60;99212.19;5008677;28;20299;-68
2020/12/11 10:27:37;;;;;;;17.57;11.73;;;;;;;3.37;73.33;99205.91;5013022;28;20209;-68
2020/12/11 10:30:04;;;;;;;15.27;9.70;;;;;;;3.37;73.35;99201.50;5013415;28;20249;-68
2020/12/11 10:32:30;;;;;;;16.07;10.73;;;;;;;3.39;74.19;99193.50;5013416;28;20234;-69
2020/12/11 10:34:56;;;;;;;18.60;10.67;;;;;;;3.40;73.39;99190.75;5012221;28;20881;-69
2020/12/11 10:37:22;;;;;;;16.33;10.17;;;;;;;3.41;73.76;99178.44;5013874;28;20217;-69
2020/12/11 10:39:48;;;;;;;15.77;9.37;;;;;;;3.42;73.47;99182.78;5012647;28;20199;-69
2020/12/11 10:42:14;;;;;;;20.57;10.43;;;;;;;3.43;73.66;99189.75;5013062;28;20207;-69
2020/12/11 10:44:41;;;;;;;18.40;11.37;;;;;;;3.46;73.29;99184.31;5013899;28;20207;-69
2020/12/11 10:47:07;;;;;;;17.63;10.30;;;;;;;3.46;73.10;99173.78;5012950;28;20230;-69
2020/12/11 10:49:33;;;;;;;16.63;10.37;;;;;;;3.47;73.44;99186.00;5013800;28;20578;-69
2020/12/11 10:51:59;;;;;;;14.97;10.50;;;;;;;3.49;73.32;99174.47;5013192;28;20237;-69
2020/12/11 10:54:27;;;;;;;18.80;10.53;;;;;;;3.51;72.52;99176.16;5014159;28;20203;-69
2020/12/11 10:56:56;;;;;;;15.10;9.53;;;;;;;3.53;72.85;99176.91;5013733;28;20207;-69
2020/12/11 10:59:24;;;;;;;17.53;10.47;;;;;;;3.52;73.13;99172.59;5013783;28;20575;-69
2020/12/11 11:01:52;;;;;;;16.23;10.53;;;;;;;3.54;73.07;99174.19;5013106;28;20249;-69
2020/12/11 11:04:22;;;;;;;14.60;9.43;;;;;;;3.56;72.91;99163.59;5000047;28;20668;-69
2020/12/11 11:06:51;;;;;;;16.53;11.07;;;;;;;3.57;72.20;99167.91;5013548;28;20207;-68
2020/12/11 11:09:28;;;;;;;17.73;11.03;;;;;;;3.60;72.42;99165.06;5009401;28;20563;-65
2020/12/11 11:12:02;;;;;;;17.43;11.03;;;;;;;3.64;72.55;99163.97;5009085;28;20548;-67
2020/12/11 11:14:48;;;;;;;15.67;10.67;;;;;;;3.69;72.26;99154.03;5012858;28;20213;-67
2020/12/11 11:20:24;;;;;;;16.50;10.03;;;;;;;3.76;72.68;99152.75;5012669;28;20223;-67
2020/12/11 11:22:57;;;;;;;17.13;10.40;;;;;;;3.77;72.33;99147.34;5012913;28;20213;-66
2020/12/11 11:27:59;;;;;;;15.73;10.53;;;;;;;3.84;72.68;99132.03;5012695;28;20205;-67
2020/12/11 11:30:26;;;;;;;17.33;10.70;;;;;;;3.88;72.66;99122.19;5012409;28;20593;-67
2020/12/11 11:32:53;;;;;;;15.67;10.50;;;;;;;3.91;72.28;99124.63;5012187;28;20671;-67
2020/12/11 11:35:19;;;;;;;17.93;11.03;;;;;;;3.93;72.03;99120.97;5012651;28;20211;-67
2020/12/11 11:37:46;;;;;;;16.07;10.80;;;;;;;3.96;72.42;99123.38;5012953;28;20706;-67
2020/12/11 11:40:12;;;;;;;20.30;12.43;;;;;;;3.98;71.79;99118.88;5012553;28;20680;-66
2020/12/11 11:42:39;;;;;;;20.63;12.00;;;;;;;4.01;72.06;99112.59;5012630;28;20202;-66